createdAt,value
2023-02-06T00:03:06.898Z,30.75
2023-02-06T00:07:24.028Z,32.90
2023-02-06T00:11:41.085Z,33.03
2023-02-06T00:15:58.334Z,32.83
2023-02-06T00:20:15.495Z,33.22
2023-02-06T00:24:32.591Z,35.00
2023-02-06T00:28:49.902Z,30.55
2023-02-06T00:33:07.145Z,26.98
2023-02-06T00:37:24.258Z,34.60
2023-02-06T00:41:41.355Z,35.13
2023-02-06T00:45:58.727Z,29.33
2023-02-06T00:50:16.264Z,33.40
2023-02-06T00:54:33.336Z,28.35
2023-02-06T00:58:50.417Z,34.00
2023-02-06T01:03:07.509Z,32.00
2023-02-06T01:07:24.598Z,28.60
2023-02-06T01:11:41.685Z,32.38
2023-02-06T01:15:58.825Z,28.75
2023-02-06T01:20:15.975Z,29.77
2023-02-06T01:24:33.159Z,36.38
2023-02-06T01:28:50.661Z,30.40
2023-02-06T01:33:07.760Z,30.92
2023-02-06T01:37:24.849Z,30.27
2023-02-06T01:41:41.971Z,31.77
2023-02-06T01:45:59.437Z,31.23
2023-02-06T01:54:34.334Z,32.28
2023-02-06T02:03:10.481Z,28.10
2023-02-06T02:07:32.969Z,26.63
2023-02-06T02:11:50.027Z,26.13
2023-02-06T02:16:36.260Z,30.98
2023-02-06T02:21:33.125Z,32.40
2023-02-06T02:26:25.502Z,27.73
2023-02-06T02:31:09.589Z,32.30
2023-02-06T02:35:55.034Z,32.92
2023-02-06T02:40:39.624Z,33.63
2023-02-06T02:45:04.674Z,34.72
2023-02-06T02:49:25.057Z,37.47
2023-02-06T02:53:42.151Z,37.15
2023-02-06T02:58:12.650Z,39.15
2023-02-06T03:02:34.999Z,33.30
2023-02-06T03:07:06.426Z,36.38
2023-02-06T03:11:24.017Z,34.67
2023-02-06T03:15:55.999Z,38.97
2023-02-06T03:20:14.861Z,35.50
2023-02-06T03:24:38.703Z,34.58
2023-02-06T03:29:00.767Z,33.75
2023-02-06T03:33:22.757Z,39.65
2023-02-06T03:37:40.072Z,36.63
2023-02-06T03:41:59.929Z,36.65
2023-02-06T03:46:18.521Z,38.47
2023-02-06T03:50:38.387Z,38.53
2023-02-06T03:55:02.328Z,38.20
2023-02-06T03:59:19.775Z,41.28
2023-02-06T04:03:36.928Z,38.38
2023-02-06T04:07:56.504Z,38.87
2023-02-06T04:12:13.634Z,36.97
2023-02-06T04:16:30.742Z,38.17
2023-02-06T04:20:47.883Z,37.73
2023-02-06T04:25:05.226Z,39.67
2023-02-06T04:29:22.409Z,40.40
2023-02-06T04:33:39.516Z,41.60
2023-02-06T04:37:56.761Z,43.80
2023-02-06T04:42:13.932Z,40.70
2023-02-06T04:46:31.032Z,39.57
2023-02-06T04:50:49.927Z,50.67
2023-02-06T04:55:07.475Z,46.85
2023-02-06T04:59:24.553Z,47.95
2023-02-06T05:03:41.644Z,45.63
2023-02-06T05:07:58.773Z,47.30
2023-02-06T05:12:15.853Z,58.08
2023-02-06T05:16:32.971Z,42.57
2023-02-06T05:20:50.089Z,45.53
2023-02-06T05:25:07.514Z,48.07
2023-02-06T05:29:25.804Z,50.97
2023-02-06T05:33:42.873Z,49.00
2023-02-06T05:37:59.994Z,49.90
2023-02-06T05:42:17.160Z,47.70
2023-02-06T05:46:34.319Z,55.50
2023-02-06T05:50:51.467Z,51.67
2023-02-06T05:55:09.395Z,52.55
2023-02-06T05:59:26.480Z,48.83
2023-02-06T06:03:43.643Z,47.55
2023-02-06T06:08:00.766Z,53.57
2023-02-06T06:12:17.841Z,50.25
2023-02-06T06:16:35.064Z,54.45
2023-02-06T06:20:53.126Z,56.90
2023-02-06T06:29:27.425Z,57.60
2023-02-06T06:33:44.999Z,49.13
2023-02-06T06:38:02.055Z,51.58
2023-02-06T06:42:19.194Z,48.58
2023-02-06T06:46:36.239Z,51.58
2023-02-06T06:50:53.775Z,51.95
2023-02-06T06:55:11.099Z,54.63
2023-02-06T06:59:28.266Z,51.33
2023-02-06T07:03:47.006Z,52.42
2023-02-06T07:08:04.503Z,51.63
2023-02-06T07:12:22.102Z,53.95
2023-02-06T07:16:39.384Z,50.97
2023-02-06T07:20:56.486Z,49.77
2023-02-06T07:25:13.743Z,53.40
2023-02-06T07:29:30.874Z,52.63
2023-02-06T07:33:48.007Z,48.25
2023-02-06T07:38:05.069Z,55.78
2023-02-06T07:42:22.160Z,58.42
2023-02-06T07:46:39.259Z,63.58
2023-02-06T07:50:56.592Z,64.07
2023-02-06T07:55:14.262Z,64.00
2023-02-06T07:59:31.417Z,58.05
2023-02-06T08:03:52.712Z,73.65
2023-02-06T08:08:10.659Z,79.30
2023-02-06T08:12:30.158Z,69.25
2023-02-06T08:16:49.316Z,65.13
2023-02-06T08:21:10.058Z,83.93
2023-02-06T08:25:27.180Z,76.13
2023-02-06T08:29:44.260Z,85.43
2023-02-06T08:34:01.888Z,82.43
2023-02-06T08:38:18.945Z,81.13
2023-02-06T08:42:36.052Z,81.60
2023-02-06T08:47:04.698Z,78.85
2023-02-06T08:51:27.838Z,81.28
2023-02-06T08:55:44.892Z,84.80
2023-02-06T09:00:02.130Z,80.03
2023-02-06T09:04:19.377Z,74.32
2023-02-06T09:08:37.130Z,76.47
2023-02-06T09:12:54.870Z,81.68
2023-02-06T09:17:12.013Z,98.63
2023-02-06T09:21:31.686Z,82.22
2023-02-06T09:25:49.486Z,91.80
2023-02-06T09:30:06.948Z,102.35
2023-02-06T09:34:26.090Z,98.13
2023-02-06T09:38:46.382Z,107.10
2023-02-06T09:43:03.964Z,102.43
2023-02-06T09:47:26.832Z,105.63
2023-02-06T09:52:07.766Z,90.07
2023-02-06T09:56:45.010Z,121.05
2023-02-06T10:01:07.798Z,120.30
2023-02-06T10:05:51.633Z,120.65
2023-02-06T10:10:19.223Z,95.10
2023-02-06T10:14:44.925Z,129.23
2023-02-06T10:19:16.577Z,139.95
2023-02-06T10:23:52.866Z,143.88
2023-02-06T10:28:23.754Z,130.50
2023-02-06T10:32:58.688Z,135.88
2023-02-06T10:37:49.622Z,141.95
2023-02-06T10:42:38.753Z,132.60
2023-02-06T10:46:57.267Z,166.80
2023-02-06T10:51:37.729Z,131.05
2023-02-06T10:56:09.607Z,137.70
2023-02-06T11:00:28.155Z,142.52
2023-02-06T11:04:53.425Z,131.85
2023-02-06T11:09:10.542Z,144.50
2023-02-06T11:13:32.981Z,122.00
2023-02-06T11:17:52.541Z,111.15
2023-02-06T11:22:25.523Z,105.82
2023-02-06T11:26:46.616Z,108.88
2023-02-06T11:31:06.770Z,90.15
2023-02-06T11:35:38.936Z,81.90
2023-02-06T11:40:20.776Z,74.22
2023-02-06T11:44:41.207Z,79.30
2023-02-06T11:49:22.004Z,103.70
2023-02-06T11:53:40.111Z,104.32
2023-02-06T11:58:11.516Z,115.47
2023-02-06T12:02:33.301Z,91.60
2023-02-06T12:07:15.086Z,95.78
2023-02-06T12:12:05.536Z,91.28
2023-02-06T12:16:24.114Z,94.18
2023-02-06T12:20:52.881Z,105.97
2023-02-06T12:29:45.700Z,101.78
2023-02-06T12:34:17.749Z,76.43
2023-02-06T12:38:53.607Z,77.43
2023-02-06T12:43:14.685Z,78.25
2023-02-06T12:47:59.467Z,89.35
2023-02-06T12:52:27.035Z,59.58
2023-02-06T12:56:48.675Z,69.10
2023-02-06T13:01:34.364Z,76.00
2023-02-06T13:06:12.676Z,95.13
2023-02-06T13:10:29.759Z,71.10
2023-02-06T13:14:59.337Z,58.47
2023-02-06T13:19:24.995Z,56.55
2023-02-06T13:24:00.753Z,58.65
2023-02-06T13:28:21.438Z,50.05
2023-02-06T13:32:42.679Z,48.75
2023-02-06T13:37:18.924Z,41.70
2023-02-06T13:41:37.403Z,38.00
2023-02-06T13:46:01.535Z,39.75
2023-02-06T13:50:47.464Z,42.00
2023-02-06T13:55:20.002Z,46.47
2023-02-06T13:59:51.866Z,37.38
2023-02-06T14:04:24.804Z,50.28
2023-02-06T14:09:08.759Z,52.22
2023-02-06T14:13:53.453Z,52.65
2023-02-06T14:18:16.634Z,54.67
2023-02-06T14:22:41.982Z,48.45
2023-02-06T14:27:16.040Z,47.05
2023-02-06T14:31:51.612Z,36.53
2023-02-06T14:36:15.733Z,33.42
2023-02-06T14:40:41.505Z,41.40
2023-02-06T14:45:06.543Z,32.80
2023-02-06T14:49:34.662Z,40.65
2023-02-06T14:53:58.394Z,41.08
2023-02-06T14:58:30.114Z,44.25
2023-02-06T15:02:47.343Z,37.33
2023-02-06T15:07:05.076Z,44.45
2023-02-06T15:11:25.250Z,42.92
2023-02-06T15:15:56.174Z,43.25
2023-02-06T15:20:25.348Z,38.75
2023-02-06T15:24:57.649Z,37.03
2023-02-06T15:29:19.869Z,41.83
2023-02-06T15:33:36.999Z,47.25
2023-02-06T15:37:55.172Z,45.80
2023-02-06T15:42:12.343Z,45.95
2023-02-06T15:46:31.006Z,51.05
2023-02-06T15:51:07.852Z,38.75
2023-02-06T15:55:34.770Z,48.40
2023-02-06T15:59:52.011Z,47.75
2023-02-06T16:04:16.751Z,60.13
2023-02-06T16:08:35.454Z,57.58
2023-02-06T16:12:53.853Z,73.60
2023-02-06T16:17:13.659Z,70.28
2023-02-06T16:21:32.528Z,89.82
2023-02-06T16:26:23.507Z,78.70
2023-02-06T16:30:41.037Z,79.68
2023-02-06T16:35:01.132Z,84.80
2023-02-06T16:39:19.039Z,125.82
2023-02-06T16:43:36.659Z,98.35
2023-02-06T16:47:54.694Z,120.03
2023-02-06T16:52:24.735Z,117.97
2023-02-06T16:56:41.817Z,116.07
2023-02-06T17:00:58.938Z,186.18
2023-02-06T17:05:16.132Z,131.38
2023-02-06T17:09:33.251Z,112.82
2023-02-06T17:13:50.374Z,146.23
2023-02-06T17:18:07.534Z,139.50
2023-02-06T17:22:24.717Z,141.88
2023-02-06T17:26:41.865Z,85.70
2023-02-06T17:30:59.022Z,89.20
2023-02-06T17:35:16.922Z,72.00
2023-02-06T17:39:35.054Z,63.30
2023-02-06T17:48:09.394Z,66.10
2023-02-06T17:52:26.529Z,71.17
2023-02-06T17:56:43.638Z,69.72
2023-02-06T18:01:00.758Z,77.75
2023-02-06T18:05:18.041Z,76.40
2023-02-06T18:09:35.157Z,82.30
2023-02-06T18:13:52.281Z,79.43
2023-02-06T18:18:09.402Z,103.80
2023-02-06T18:22:26.696Z,107.82
2023-02-06T18:26:43.867Z,110.93
2023-02-06T18:31:02.177Z,90.85
2023-02-06T18:35:19.804Z,86.13
2023-02-06T18:39:38.534Z,89.18
2023-02-06T18:43:56.093Z,89.60
2023-02-06T18:48:13.621Z,92.50
2023-02-06T18:52:30.732Z,87.03
2023-02-06T18:56:49.742Z,94.00
2023-02-06T19:01:17.897Z,87.97
2023-02-06T19:05:35.925Z,94.32
2023-02-06T19:14:16.847Z,86.43
2023-02-06T19:18:38.905Z,91.15
2023-02-06T19:22:58.045Z,92.00
2023-02-06T19:27:15.107Z,99.10
2023-02-06T19:31:32.337Z,99.27
2023-02-06T19:35:49.602Z,94.30
2023-02-06T19:40:07.183Z,86.93
2023-02-06T19:44:24.331Z,92.28
2023-02-06T19:48:43.792Z,99.90
2023-02-06T19:53:00.858Z,99.28
2023-02-06T19:57:19.409Z,97.03
2023-02-06T20:01:36.554Z,96.00
2023-02-06T20:05:53.649Z,102.67
2023-02-06T20:10:10.829Z,89.50
2023-02-06T20:14:28.048Z,101.72
2023-02-06T20:18:45.335Z,96.55
2023-02-06T20:23:02.484Z,82.10
2023-02-06T20:27:19.596Z,96.57
2023-02-06T20:31:36.919Z,96.13
2023-02-06T20:35:54.070Z,101.00
2023-02-06T20:40:11.401Z,93.43
2023-02-06T20:44:28.735Z,75.57
2023-02-06T20:48:47.230Z,76.18
2023-02-06T20:53:04.322Z,75.18
2023-02-06T20:57:22.939Z,80.65
2023-02-06T21:01:40.817Z,68.88
2023-02-06T21:05:59.122Z,74.78
2023-02-06T21:10:16.392Z,70.32
2023-02-06T21:14:33.712Z,70.18
2023-02-06T21:18:50.796Z,70.10
2023-02-06T21:23:09.055Z,71.20
2023-02-06T21:27:28.052Z,81.03
2023-02-06T21:31:46.135Z,82.43
2023-02-06T21:36:06.972Z,72.47
2023-02-06T21:40:24.225Z,77.25
2023-02-06T21:44:42.368Z,75.18
2023-02-06T21:48:59.711Z,77.95
2023-02-06T21:53:16.799Z,88.00
2023-02-06T21:57:34.963Z,92.03
2023-02-06T22:01:53.212Z,75.25
2023-02-06T22:06:11.686Z,73.88
2023-02-06T22:10:28.842Z,74.63
2023-02-06T22:14:45.952Z,74.55
2023-02-06T22:19:04.081Z,78.07
2023-02-06T22:23:21.193Z,74.90
2023-02-06T22:27:38.908Z,73.85
2023-02-06T22:31:56.005Z,72.07
2023-02-06T22:36:15.900Z,73.53
2023-02-06T22:40:32.989Z,71.43
2023-02-06T22:44:50.585Z,70.30
2023-02-06T22:49:09.060Z,61.95
2023-02-06T22:53:32.400Z,68.68
2023-02-06T22:57:49.525Z,65.25
2023-02-06T23:02:06.715Z,72.18
2023-02-06T23:06:24.671Z,61.42
2023-02-06T23:10:41.740Z,64.20
2023-02-06T23:14:58.828Z,65.28
2023-02-06T23:19:16.719Z,60.00
2023-02-06T23:23:33.940Z,60.60
2023-02-06T23:32:08.088Z,55.28
2023-02-06T23:40:43.219Z,54.72
2023-02-06T23:49:17.908Z,59.80
2023-02-06T23:57:52.072Z,62.03
